Data for 09/15/2007

Time Sea-Level Adjusted Pressure Absolute Pressure Temperature Relative Humidity Dew Point   
(mb) (inHg) (mb) (inHg) (C) (F) (%) (C) (F)
00:05 1018 30.06 847 25.01 13.4 56.2 45 1.7 35
00:10 1018 30.06 847 25.01 13.1 55.6 45 1.6 34.8
00:15 1018 30.06 847 25.01 13 55.5 45 1.5 34.6
00:20 1018 30.06 847 25.01 13.1 55.6 45 1.6 34.8
00:25 1018 30.06 847 25.01 13.2 55.8 44 1.4 34.4
00:30 1018 30.06 847 25.01 13.4 56.1 44 1.4 34.6
00:35 1018 30.06 847 25.01 13.3 55.9 45 1.8 35.3
00:40 1018 30.06 847 25.01 12.9 55.2 46 1.7 35.1
00:45 1018 30.06 847 25.01 12.7 54.8 47 1.9 35.3
00:50 1018 30.06 847 25.01 12.6 54.6 47 1.5 34.8
00:55 1018 30.06 847 25.01 12.6 54.7 47 1.6 34.9
01:00 1018 30.06 847 25.01 12.6 54.7 47 1.8 35.3
01:05 1018 30.06 847 25.01 12.5 54.5 48 1.8 35.2
01:10 1018 30.06 847 25.01 12.5 54.5 48 2 35.6
01:15 1018 30.06 847 25.01 12.3 54.2 49 2 35.6
01:20 1018 30.06 847 25.01 12.1 53.8 49 1.9 35.4
01:25 1018 30.06 847 25.01 12 53.5 50 2 35.6
01:30 1018 30.06 847 25.01 11.8 53.2 51 2 35.6
01:35 1018 30.06 847 25.01 11.6 52.9 51 1.9 35.4
01:40 1018 30.06 847 25.01 11.6 52.9 51 1.9 35.5
01:45 1018 30.06 847 25.01 11.6 52.9 51 2 35.6
01:50 1018 30.06 847 25.01 11.4 52.5 53 2.2 35.9
01:55 1018 30.06 847 25.01 11.1 52 54 2.2 35.9
02:00 1018 30.06 847 25.01 11.1 51.9 54 2.1 35.8
02:05 1018 30.06 847 25.01 11.1 51.9 54 2 35.7
02:10 1018 30.06 847 25.01 11 51.8 54 2.2 35.9
02:15 1018 30.06 847 25.01 10.8 51.5 54 1.9 35.5
02:20 1018 30.06 847 25.01 10.9 51.6 53 1.8 35.3
02:25 1018 30.06 847 25.01 11.1 52 53 2 35.6
02:30 1018 30.06 847 25.01 11 51.8 54 2.1 35.8
02:35 1018 30.06 847 25.01 10.9 51.6 54 2.1 35.7
02:40 1018 30.06 847 25.01 10.9 51.6 54 2 35.5
02:45 1018 30.06 847 25.01 11.1 51.9 52 1.6 34.9
02:50 1018 30.06 847 25.01 11.3 52.3 52 1.9 35.4
02:55 1018 30.06 847 25.01 11.2 52.1 53 2 35.6
03:00 1018 30.06 847 25.01 10.9 51.7 54 2.1 35.8
03:05 1018 30.06 847 25.01 10.8 51.5 54 2 35.6
03:10 1018 30.06 847 25.01 10.9 51.6 54 2.1 35.8
03:15 1018 30.06 847 25.01 10.9 51.6 54 2.1 35.8
03:20 1018 30.06 847 25.01 10.9 51.6 54 2.1 35.8
03:25 1018 30.06 847 25.01 11 51.8 53 2 35.5
03:30 1018 30.06 847 25.01 11.1 52 53 2 35.5
03:35 1018 30.06 847 25.01 11.3 52.3 53 2 35.6
03:40 1018 30.06 847 25.01 11.2 52.2 53 2.1 35.8
03:45 1018 30.06 847 25.01 11.2 52.1 54 2.2 36
03:50 1018 30.06 847 25.01 11 51.8 54 2.1 35.8
03:55 1018 30.06 847 25.01 11.1 51.9 53 1.8 35.2
04:00 1018 30.06 847 25.01 11.1 52 52 1.8 35.2
04:05 1018 30.06 847 25.01 11 51.8 52 1.7 35
04:10 1018 30.06 847 25.01 11.4 52.4 50 1.3 34.3
04:15 1018 30.06 847 25.01 11.4 52.5 53 2.3 36.1
04:20 1018 30.06 847 25.01 10.4 50.7 54 1.6 35
04:25 1018 30.06 847 25.01 10.3 50.5 52 0.8 33.4
04:30 1018 30.06 848 25.04 10.9 51.6 49 0.6 33.1
04:35 1018 30.06 848 25.04 11.3 52.3 50 1.4 34.5
04:40 1018 30.06 848 25.04 11.2 52.2 52 1.8 35.3
04:45 1018 30.06 848 25.04 11.2 52.2 52 1.8 35.3
04:50 1018 30.06 848 25.04 11.2 52.2 52 1.9 35.4
04:55 1018 30.06 848 25.04 10.9 51.7 55 2.4 36.3
05:00 1019 30.09 848 25.04 10.4 50.8 57 2.4 36.2
05:05 1019 30.09 848 25.04 10.1 50.2 58 2.3 36.1
05:10 1018 30.06 848 25.04 10.1 50.1 56 1.7 35.1
05:15 1018 30.06 848 25.04 10.2 50.4 56 2 35.5
05:20 1018 30.06 848 25.04 10.2 50.4 56 1.8 35.2
05:25 1018 30.06 848 25.04 10.2 50.4 57 2.1 35.8
05:30 1018 30.06 848 25.04 10.1 50.2 57 2 35.6
05:35 1018 30.06 848 25.04 9.8 49.7 59 2.3 36.2
05:40 1018 30.06 848 25.04 9.7 49.5 56 1.5 34.7
05:45 1018 30.06 848 25.04 10.4 50.7 56 2.1 35.8
05:50 1018 30.06 848 25.04 10.3 50.5 56 1.9 35.4
05:55 1018 30.06 848 25.04 10.2 50.3 55 1.7 35.1
06:00 1018 30.06 848 25.04 10.3 50.6 56 2 35.5
06:05 1018 30.06 848 25.04 9.5 49 60 2.2 35.9
06:10 1018 30.06 848 25.04 9 48.3 59 1.4 34.5
06:15 1019 30.09 848 25.04 9.6 49.3 59 2 35.5
06:20 1019 30.09 848 25.04 9.5 49.1 60 2.1 35.8
06:25 1019 30.09 848 25.04 9.3 48.7 60 2 35.7
06:30 1019 30.09 848 25.04 9.1 48.3 61 2 35.5
06:35 1019 30.09 848 25.04 8.9 47.9 62 1.9 35.5
06:40 1019 30.09 848 25.04 8.8 47.8 62 1.8 35.3
06:45 1019 30.09 848 25.04 8.6 47.6 62 1.7 35.1
06:50 1019 30.09 848 25.04 8.7 47.7 61 1.6 34.8
06:55 1019 30.09 848 25.04 8.9 48 60 1.7 35
07:00 1019 30.09 848 25.04 8.9 47.9 60 1.6 34.8
07:05 1019 30.09 848 25.04 9 48.1 60 1.8 35.2
07:10 1019 30.09 848 25.04 8.9 48.1 61 1.9 35.4
07:15 1019 30.09 848 25.04 8.8 47.8 61 1.8 35.3
07:20 1019 30.09 848 25.04 8.9 47.9 61 1.7 35.1
07:25 1019 30.09 848 25.04 9 48.1 59 1.5 34.7
07:30 1019 30.09 848 25.04 9.5 49 56 1.3 34.3
07:35 1019 30.09 848 25.04 9.7 49.5 58 1.8 35.2
07:40 1019 30.09 848 25.04 9.5 49 59 1.9 35.4
07:45 1019 30.09 848 25.04 9.5 49.2 58 1.6 35
07:50 1019 30.09 848 25.04 9.8 49.7 54 1 33.9
07:55 1019 30.09 848 25.04 10.3 50.5 54 1.4 34.5
08:00 1019 30.09 848 25.04 10.3 50.6 55 1.8 35.2
08:05 1019 30.09 848 25.04 10.3 50.5 55 1.7 35.1
08:10 1019 30.09 848 25.04 10.2 50.4 57 2.2 36
08:15 1019 30.09 848 25.04 10.1 50.2 58 2.3 36.1
08:20 1019 30.09 848 25.04 10.3 50.5 57 2.3 36.1
08:25 1019 30.09 848 25.04 10.4 50.8 57 2.3 36.2
08:30 1019 30.09 848 25.04 10.6 51.1 56 2.2 36
08:35 1019 30.09 848 25.04 11.1 51.9 54 2.1 35.9
08:40 1019 30.09 848 25.04 11.6 52.9 52 2.2 35.9
08:45 1019 30.09 849 25.07 12.2 53.9 50 2 35.6
08:50 1019 30.09 849 25.07 12.9 55.2 47 1.9 35.4
08:55 1019 30.09 849 25.07 13.5 56.4 46 2.2 35.9
09:00 1019 30.09 849 25.07 13.8 56.8 46 2.6 36.6
09:05 1019 30.09 849 25.07 14.1 57.3 44 2.2 35.9
09:10 1019 30.09 849 25.07 14.5 58.1 44 2.4 36.4
09:15 1019 30.09 849 25.07 15 59 41 1.8 35.3
09:20 1019 30.09 849 25.07 15.3 59.5 40 1.9 35.3
09:25 1019 30.09 849 25.07 15.6 60 39 1.8 35.3
09:30 1019 30.09 849 25.07 15.9 60.7 37 1.5 34.7
09:35 1019 30.09 849 25.07 16.3 61.3 37 1.7 35.1
09:40 1019 30.09 849 25.07 16.4 61.5 37 1.7 35
09:45 1019 30.09 849 25.07 16.1 60.9 40 2.4 36.4
09:50 1019 30.09 849 25.07 16 60.8 39 2 35.6
09:55 1019 30.09 849 25.07 16.1 60.9 38 1.9 35.4
10:00 1019 30.09 848 25.04 16.1 61 38 1.8 35.2
10:05 1019 30.09 848 25.04 16.4 61.4 36 1.3 34.4
10:10 1019 30.09 848 25.04 17 62.6 35 1.7 35
10:15 1019 30.09 848 25.04 17.7 63.9 34 1.8 35.3
10:20 1019 30.09 849 25.07 18.4 65 33 1.8 35.2
10:25 1019 30.09 848 25.04 18.3 64.9 35 2.8 37
10:30 1019 30.09 848 25.04 17.5 63.5 37 2.8 37
10:35 1019 30.09 848 25.04 17.9 64.2 35 2.4 36.3
10:40 1019 30.09 848 25.04 18.7 65.6 34 2.6 36.7
10:45 1019 30.09 848 25.04 19 66.2 33 2.3 36.2
10:50 1019 30.09 848 25.04 18.6 65.5 34 2.6 36.7
10:55 1019 30.09 848 25.04 18.9 66 33 2.2 36
11:00 1019 30.09 848 25.04 19.4 66.9 31 2.2 35.9
11:05 1019 30.09 848 25.04 19.6 67.3 31 2.3 36.2
11:10 1019 30.09 848 25.04 19.9 67.7 31 2.4 36.3
11:15 1019 30.09 848 25.04 19.6 67.2 32 2.6 36.7
11:20 1019 30.09 848 25.04 19.8 67.6 31 2.6 36.6
11:25 1019 30.09 848 25.04 20.1 68.1 32 3 37.4
11:30 1019 30.09 848 25.04 20.4 68.8 30 2.7 36.8
11:35 1019 30.09 848 25.04 21.2 70.1 30 3 37.3
11:40 1019 30.09 848 25.04 21.3 70.3 30 3.1 37.5
11:45 1019 30.09 848 25.04 20.9 69.7 31 3.2 37.8
11:50 1019 30.09 848 25.04 21.1 70 29 2.5 36.6
11:55 1019 30.09 848 25.04 21.4 70.5 28 2.4 36.3
12:00 1019 30.09 848 25.04 21.7 71.1 28 2.8 37.1
12:05 1019 30.09 848 25.04 21.1 70 29 2.7 36.9
12:10 1019 30.09 848 25.04 21.8 71.2 29 3 37.3
12:15 1019 30.09 848 25.04 21.3 70.3 30 3.4 38.1
12:20 1019 30.09 848 25.04 21.5 70.7 30 3.4 38.2
12:25 1019 30.09 848 25.04 21.6 70.9 28 2.7 36.9
12:30 1019 30.09 848 25.04 21.8 71.3 29 3.4 38
12:35 1019 30.09 848 25.04 22.5 72.4 27 2.6 36.7
12:40 1019 30.09 848 25.04 22.8 73 27 3 37.3
12:45 1019 30.09 848 25.04 23.4 74.1 25 2.6 36.7
12:50 1019 30.09 848 25.04 23.6 74.5 26 3.3 37.9
12:55 1019 30.09 848 25.04 23.8 74.9 26 3.2 37.7
13:00 1019 30.09 848 25.04 23.8 74.9 26 3.2 37.7
13:05 1019 30.09 848 25.04 24 75.1 26 3.3 37.9
13:10 1019 30.09 848 25.04 24.1 75.3 25 2.9 37.3
13:15 1019 30.09 848 25.04 24.1 75.4 23 2.1 35.7
13:20 1018 30.06 848 25.04 24.6 76.3 23 2.6 36.7
13:25 1018 30.06 848 25.04 24.3 75.7 25 3 37.5
13:30 1018 30.06 848 25.04 24.5 76.1 22 1.7 35.1
13:35 1018 30.06 848 25.04 25.4 77.6 22 2.2 36
13:40 1018 30.06 848 25.04 25.3 77.5 22 2.4 36.4
13:45 1018 30.06 848 25.04 25 77 23 2.6 36.7
13:50 1018 30.06 848 25.04 25.3 77.5 21 1.8 35.2
13:55 1018 30.06 848 25.04 25.2 77.3 22 1.9 35.4
14:00 1018 30.06 848 25.04 25.2 77.3 21 1.8 35.2
14:05 1018 30.06 848 25.04 25.5 77.8 21 1.6 35
14:10 1018 30.06 847 25.01 25.7 78.2 21 2.1 35.9
14:15 1018 30.06 847 25.01 26.1 79 21 2.3 36.2
14:20 1018 30.06 847 25.01 25.7 78.2 20 1.4 34.6
14:25 1018 30.06 847 25.01 25.8 78.5 20 1.4 34.6
14:30 1018 30.06 847 25.01 26.3 79.3 20 1.6 34.9
14:35 1018 30.06 847 25.01 26.2 79.1 19 0.8 33.4
14:40 1018 30.06 847 25.01 25.9 78.6 19 1.1 34
14:45 1018 30.06 847 25.01 25.6 78.1 21 1.9 35.4
14:50 1018 30.06 847 25.01 26.2 79.1 20 1.8 35.2
14:55 1018 30.06 847 25.01 26.5 79.6 19 1.4 34.6
15:00 1018 30.06 847 25.01 27 80.5 18 1.1 34
15:05 1018 30.06 847 25.01 27 80.5 18 1.2 34.1
15:10 1018 30.06 847 25.01 27 80.6 18 0.9 33.7
15:15 1018 30.06 847 25.01 27.6 81.6 17 0.9 33.7
15:20 1018 30.06 847 25.01 27.5 81.4 17 0.6 33
15:25 1018 30.06 847 25.01 27.3 81.2 17 0.6 33.1
15:30 1018 30.06 847 25.01 25.9 78.7 18 0.3 32.5
15:35 1018 30.06 847 25.01 26 78.9 18 -0.1 31.8
15:40 1018 30.06 847 25.01 26.8 80.2 18 1 33.8
15:45 1018 30.06 847 25.01 26.9 80.5 17 -0 32
15:50 1017 30.03 847 25.01 25.5 78 18 -0.3 31.4
15:55 1017 30.03 847 25.01 26 78.9 17 -0.9 30.4
16:00 1017 30.03 847 25.01 26.2 79.2 18 0.4 32.7
16:05 1017 30.03 847 25.01 26.2 79.1 17 -0.2 31.6
16:10 1017 30.03 846 24.98 26.8 80.2 17 -0.2 31.6
16:15 1017 30.03 846 24.98 27.3 81.1 15 -1 30.2
16:20 1017 30.03 846 24.98 27.4 81.3 15 -1.1 30
16:25 1017 30.03 846 24.98 27.1 80.7 16 -0.9 30.3
16:30 1017 30.03 846 24.98 27.3 81.1 15 -1.2 29.8
16:35 1017 30.03 846 24.98 28 82.4 14 -1.5 29.3
16:40 1017 30.03 846 24.98 28.1 82.7 15 -1.1 30.1
16:45 1017 30.03 846 24.98 28.4 83.2 15 -0.8 30.6
16:50 1017 30.03 846 24.98 28.3 82.9 14 -1.3 29.7
16:55 1017 30.03 846 24.98 28.2 82.7 14 -1.5 29.3
17:00 1017 30.03 846 24.98 27.6 81.7 14 -1.6 29.1
17:05 1017 30.03 846 24.98 27.2 80.9 15 -1.2 29.8
17:10 1017 30.03 846 24.98 26.8 80.3 15 -1.7 29
17:15 1017 30.03 846 24.98 27.4 81.3 14 -1.9 28.6
17:20 1017 30.03 846 24.98 27.9 82.3 14 -1.5 29.2
17:25 1017 30.03 846 24.98 27.8 82 14 -1.4 29.4
17:30 1017 30.03 846 24.98 27.5 81.6 15 -1.1 30.1
17:35 1017 30.03 846 24.98 26.7 80 16 -0.8 30.6
17:40 1017 30.03 846 24.98 26.5 79.7 15 -1.9 28.6
17:45 1017 30.03 846 24.98 26.8 80.2 15 -1.7 28.9
17:50 1017 30.03 846 24.98 26.1 78.9 16 -1.1 29.9
17:55 1017 30.03 846 24.98 25 77 19 -0.2 31.7
18:00 1017 30.03 846 24.98 25.4 77.7 16 -1.6 29.1
18:05 1017 30.03 846 24.98 25.7 78.2 16 -1.9 28.6
18:10 1017 30.03 846 24.98 25.9 78.6 18 -0 31.9
18:15 1017 30.03 846 24.98 26.4 79.5 15 -2.4 27.6
18:20 1017 30.03 846 24.98 26.5 79.7 16 -1 30.3
18:25 1017 30.03 846 24.98 26.2 79.1 16 -1.7 29
18:30 1017 30.03 846 24.98 25.5 77.9 16 -1.7 29
18:35 1017 30.03 846 24.98 25 77 16 -2.4 27.6
18:40 1017 30.03 846 24.98 24.8 76.6 16 -2.1 28.2
18:45 1017 30.03 846 24.98 24.8 76.6 18 -1.1 30
18:50 1017 30.03 846 24.98 24.5 76 18 -1.4 29.5
18:55 1017 30.03 846 24.98 24.3 75.7 20 0.3 32.5
19:00 1017 30.03 846 24.98 24.1 75.5 20 -0.3 31.5
19:05 1017 30.03 846 24.98 24 75.1 18 -1.3 29.7
19:10 1017 30.03 846 24.98 23.7 74.7 22 0.8 33.4
19:15 1017 30.03 846 24.98 23.5 74.3 19 -1 30.3
19:20 1017 30.03 846 24.98 23.4 74.1 20 -0.8 30.6
19:25 1017 30.03 846 24.98 23.1 73.5 22 0.6 33.1
19:30 1017 30.03 846 24.98 22.6 72.6 23 0.7 33.2
19:35 1017 30.03 846 24.98 22.1 71.8 25 1.4 34.5
19:40 1017 30.03 846 24.98 21.6 70.9 24 0.5 33
19:45 1017 30.03 846 24.98 21.2 70.2 25 0.7 33.3
19:50 1017 30.03 846 24.98 20.8 69.4 29 2.3 36.1
19:55 1017 30.03 846 24.98 20.5 68.8 28 1.7 35.1
20:00 1017 30.03 846 24.98 19.9 67.9 29 1.5 34.8
20:05 1017 30.03 846 24.98 19.5 67 28 0.5 32.8
20:10 1017 30.03 846 24.98 19.3 66.8 27 0.1 32.1
20:15 1017 30.03 846 24.98 19.3 66.8 27 -0 32
20:20 1017 30.03 846 24.98 19.6 67.2 26 -0.2 31.6
20:25 1017 30.03 846 24.98 19.5 67.2 26 -0.4 31.3
20:30 1017 30.03 846 24.98 19.3 66.8 28 0.4 32.7
20:35 1017 30.03 846 24.98 19 66.2 28 0.2 32.4
20:40 1017 30.03 846 24.98 18.8 65.9 28 0.2 32.4
20:45 1017 30.03 846 24.98 18.6 65.5 28 0 32
20:50 1017 30.03 846 24.98 18.4 65.1 28 -0.3 31.4
20:55 1017 30.03 846 24.98 18.4 65.1 28 -0.2 31.6
21:00 1017 30.03 846 24.98 18.3 65 27 -0.7 30.7
21:05 1017 30.03 846 24.98 18.4 65.1 28 -0.4 31.3
21:10 1017 30.03 846 24.98 18.1 64.6 28 -0.3 31.4
21:15 1017 30.03 846 24.98 17.9 64.2 29 -0.5 31.1
21:20 1017 30.03 846 24.98 17.6 63.7 29 -0.3 31.4
21:25 1017 30.03 846 24.98 17.5 63.5 30 -0.3 31.4
21:30 1017 30.03 846 24.98 17.4 63.2 32 0.6 33
21:35 1017 30.03 846 24.98 17.4 63.4 29 -0.9 30.4
21:40 1017 30.03 846 24.98 17.5 63.4 29 -0.9 30.5
21:45 1017 30.03 846 24.98 17.7 63.9 27 -1.3 29.7
21:50 1017 30.03 846 24.98 17.7 63.8 28 -1.2 29.9
21:55 1017 30.03 846 24.98 17.5 63.5 28 -1.2 29.9
22:00 1017 30.03 846 24.98 17.2 62.9 28 -1.4 29.5
22:05 1017 30.03 846 24.98 17.1 62.8 28 -1.4 29.4
22:10 1017 30.03 846 24.98 17 62.7 28 -1.5 29.3
22:15 1017 30.03 846 24.98 16.9 62.5 29 -1.2 29.9
22:20 1017 30.03 846 24.98 16.4 61.6 29 -1.4 29.4
22:25 1017 30.03 846 24.98 16.2 61.1 30 -1.4 29.4
22:30 1017 30.03 846 24.98 16.1 60.9 29 -1.8 28.8
22:35 1017 30.03 846 24.98 16.1 60.9 32 -0.6 30.8
22:40 1017 30.03 846 24.98 15.9 60.7 28 -2.3 27.8
22:45 1017 30.03 846 24.98 15.9 60.6 29 -2.2 28.1
22:50 1017 30.03 846 24.98 15.9 60.7 30 -1.6 29.2
22:55 1016 30 846 24.98 16 60.7 29 -2 28.4
23:00 1016 30 846 24.98 15.7 60.3 29 -2 28.4
23:05 1016 30 846 24.98 15.7 60.2 29 -2.1 28.2
23:10 1016 30 846 24.98 15.8 60.4 30 -1.8 28.7
23:15 1016 30 846 24.98 15.7 60.3 29 -2.1 28.3
23:20 1016 30 846 24.98 15.8 60.4 29 -2 28.5
23:25 1016 30 846 24.98 15.8 60.5 30 -1.6 29.1
23:30 1017 30.03 846 24.98 15.7 60.2 29 -2.4 27.7
23:35 1017 30.03 846 24.98 15.9 60.6 28 -2.3 27.9
23:40 1017 30.03 846 24.98 16.2 61.1 28 -2.4 27.6
23:45 1017 30.03 846 24.98 16.1 61.1 29 -2 28.4
23:50 1017 30.03 846 24.98 16 60.7 27 -2.7 27.1
23:55 1017 30.03 846 24.98 16.2 61.2 28 -2.1 28.2
24:00 1017 30.03 846 24.98 16.1 60.9 29 -1.8 28.7